Skip Navigation LinksHome page > Weather > Current weather Skip Navigation Links

Current Weather

Montgomery Field, San Diego

For information only: do not use for flight planning or navigation.
Latest weather
Observation time Wednesday, December 8, 2021 6:53 AM PST
Local time Wednesday, December 8, 2021 8:01 AM PST
Flight conditions Visual Meteorological Conditions
Winds
Wind speed calm
Visibility 10 mi.
Sky condition
Ceiling 8,000 ft. overcast
Cloud layer few clouds 6,000 ft.
Cloud layer overcast 8,000 ft.
Temperature 54°F
Dewpoint 48°F
Altimeter 30.05 in.Hg
Pressure change last 3 hours-0.05 in.Hg
Pressure rising more quickly
Derived measurements
Relative humidity 80%
Density altitude 109 ft.
Sea-level pressure 30.04 in.Hg
Remarks
Automated weather observing station with precipitation discriminator.
METAR KMYF 081453Z 00000KT 10SM FEW060 OVC080 12/09 A3005 RMK AO2 SLP174 T01220089 53017

Settings

Location code

InnerDrive.Weather 4.0.6770.0 Release CLR 4.0.30319.42000
Copyright ©2018 Inner Drive Technology. All rights reserved. Portions Copyright ©1986-2018 David Braverman.

Find weather

Site navigation


Skip Navigation Links

Place info

Page info

PayPal - The safer, easier way to pay online!

Return home.

Copyright ©2021 Inner Drive Technology. Purveyors of fine, hand-crafted computer software. Page printed 2021-12-08T16:01:32 UTC.